Time;durP1;ratioP1;P1;durP2;ratioP2;P2;SDS_P1;SDS_P2;PMS_P1;PMS_P2;Temp;Humidity;BMP_temperature;BMP_pressure;BME280_temperature;BME280_humidity;BME280_pressure;Samples;Min_cycle;Max_cycle;Signal;HPM_P1;HPM_P2
2022/10/13 00:00:34;;;;;;;24.10;10.02;;;;;;;10.82;96.98;101767.88;5096412;28;20022;-88
2022/10/13 00:03:03;;;;;;;25.50;10.63;;;;;;;10.82;96.48;101759.72;5096170;28;20036;-88
2022/10/13 00:05:50;;;;;;;23.90;11.48;;;;;;;10.80;96.85;101760.94;5096066;28;20138;-88
2022/10/13 00:08:23;;;;;;;22.80;10.48;;;;;;;10.79;96.25;101762.81;5114418;28;20031;-88
2022/10/13 00:10:53;;;;;;;20.83;9.97;;;;;;;10.78;96.98;101746.75;5096477;28;20062;-87
2022/10/13 00:13:27;;;;;;;23.67;10.77;;;;;;;10.82;96.81;101758.84;5061536;28;20047;-88
2022/10/13 00:15:53;;;;;;;23.23;10.52;;;;;;;10.78;96.92;101754.88;5114160;28;20020;-88
2022/10/13 00:18:26;;;;;;;24.00;10.57;;;;;;;10.71;97.17;101736.63;5095350;28;20046;-89
2022/10/13 00:20:56;;;;;;;21.98;10.02;;;;;;;10.71;97.25;101741.22;5096157;28;20023;-88
2022/10/13 00:23:24;;;;;;;23.23;10.90;;;;;;;10.70;97.22;101743.13;5079026;28;20034;-88
2022/10/13 00:25:52;;;;;;;23.80;10.35;;;;;;;10.68;97.41;101737.03;5078615;28;20043;-88
2022/10/13 00:28:21;;;;;;;21.15;10.52;;;;;;;10.66;97.32;101738.28;5114257;28;20115;-88
2022/10/13 00:30:47;;;;;;;20.90;10.30;;;;;;;10.66;97.54;101743.69;5095722;28;20202;-88
2022/10/13 00:33:15;;;;;;;24.48;10.52;;;;;;;10.64;97.81;101738.44;5095395;28;20043;-88
2022/10/13 00:35:44;;;;;;;21.23;10.52;;;;;;;10.66;97.81;101739.09;5096056;28;20565;-88
2022/10/13 00:38:10;;;;;;;21.17;10.97;;;;;;;10.70;97.52;101737.69;5079503;28;20543;-88
2022/10/13 00:41:03;;;;;;;;;;;;;;;;;;;;;
2022/10/13 00:43:52;;;;;;;22.83;10.23;;;;;;;10.69;97.63;101738.72;5117763;28;20027;-88
2022/10/13 00:46:21;;;;;;;19.17;9.90;;;;;;;10.66;98.04;101736.38;5099953;28;20160;-87
2022/10/13 00:48:50;;;;;;;23.13;10.52;;;;;;;10.68;97.96;101733.47;5099299;28;20031;-88
2022/10/13 00:51:24;;;;;;;21.87;10.80;;;;;;;10.69;97.75;101738.72;5099598;28;20090;-88
2022/10/13 00:53:51;;;;;;;23.30;10.63;;;;;;;10.71;97.60;101728.50;5099482;28;20035;-87
2022/10/13 00:56:21;;;;;;;21.58;10.52;;;;;;;10.74;97.71;101740.84;5099615;28;20077;-87
2022/10/13 00:58:52;;;;;;;23.08;10.07;;;;;;;10.74;97.61;101729.16;5117751;28;20027;-87
2022/10/13 01:01:22;;;;;;;24.08;10.23;;;;;;;10.76;97.63;101737.94;5117952;28;20031;-88
2022/10/13 01:03:50;;;;;;;23.90;10.30;;;;;;;10.74;97.54;101727.25;5099524;28;20514;-87
2022/10/13 01:06:18;;;;;;;23.15;11.35;;;;;;;10.73;97.84;101725.56;5099243;28;20092;-87
2022/10/13 01:08:50;;;;;;;26.27;10.65;;;;;;;10.75;97.76;101730.81;5099135;28;20055;-88
2022/10/13 01:11:34;;;;;;;19.52;10.00;;;;;;;10.75;97.84;101741.66;5099418;28;20035;-88
2022/10/13 01:14:16;;;;;;;24.75;10.05;;;;;;;10.76;97.58;101727.06;5099272;28;20154;-87
2022/10/13 01:16:51;;;;;;;22.33;10.30;;;;;;;10.75;98.03;101737.09;5117710;28;20098;-88
2022/10/13 01:19:41;;;;;;;24.25;9.65;;;;;;;10.75;97.50;101728.09;5098985;28;20037;-88
2022/10/13 01:22:32;;;;;;;26.23;9.73;;;;;;;10.74;97.87;101729.97;5099257;28;20116;-88
2022/10/13 01:25:09;;;;;;;24.13;9.63;;;;;;;10.74;97.88;101729.97;5098554;28;20051;-88
2022/10/13 01:28:04;;;;;;;24.00;9.60;;;;;;;10.74;97.78;101731.88;5099252;28;20027;-88
2022/10/13 01:30:50;;;;;;;23.83;9.37;;;;;;;10.71;98.15;101724.94;5117262;28;20032;-88
2022/10/13 01:33:18;;;;;;;28.25;10.88;;;;;;;10.74;98.22;101734.59;5098768;28;20028;-88
2022/10/13 01:36:18;;;;;;;28.10;10.75;;;;;;;10.75;98.51;101739.81;5098482;28;20032;-88
2022/10/13 01:39:08;;;;;;;28.48;10.45;;;;;;;10.73;98.27;101722.88;5054650;28;20076;-88
2022/10/13 01:41:45;;;;;;;31.17;10.02;;;;;;;10.76;98.75;101716.22;5098758;28;20043;-87
2022/10/13 01:44:25;;;;;;;27.23;10.63;;;;;;;10.75;98.63;101715.38;5098427;28;20115;-88
2022/10/13 01:46:53;;;;;;;28.40;10.93;;;;;;;10.78;98.07;101712.28;5098817;28;20051;-88
2022/10/13 01:49:26;;;;;;;27.23;10.55;;;;;;;10.77;98.75;101721.44;5116445;28;20081;-88
2022/10/13 01:52:27;;;;;;;25.55;9.88;;;;;;;10.76;98.73;101708.06;5098046;28;20035;-88
2022/10/13 01:55:02;;;;;;;28.05;10.63;;;;;;;10.79;98.42;101699.53;5093217;28;20491;-88
2022/10/13 01:57:41;;;;;;;24.33;10.50;;;;;;;10.79;98.74;101704.97;5099849;28;20038;-88
2022/10/13 02:00:15;;;;;;;22.48;10.25;;;;;;;10.79;99.19;101707.69;5098426;28;20118;-87
2022/10/13 02:03:18;;;;;;;26.48;11.35;;;;;;;10.81;98.91;101701.03;5116902;28;20048;-88
2022/10/13 02:06:01;;;;;;;22.90;10.75;;;;;;;10.81;99.23;101697.47;5098361;28;20040;-88
2022/10/13 02:08:57;;;;;;;27.77;10.25;;;;;;;10.83;99.22;101698.09;5098254;28;20026;-87
2022/10/13 02:11:26;;;;;;;22.87;10.17;;;;;;;10.83;99.12;101692.69;5097291;28;20046;-87
2022/10/13 02:13:59;;;;;;;23.42;10.10;;;;;;;10.86;99.17;101687.69;5098244;28;20024;-88
2022/10/13 02:16:41;;;;;;;20.88;9.88;;;;;;;10.88;99.02;101690.22;5097881;28;20069;-87
2022/10/13 02:19:32;;;;;;;27.80;10.63;;;;;;;10.91;99.30;101684.41;5097643;28;20126;-88
2022/10/13 02:22:10;;;;;;;23.23;10.38;;;;;;;10.90;98.86;101685.44;5115739;28;20415;-88
2022/10/13 02:24:38;;;;;;;24.27;10.50;;;;;;;10.89;99.11;101681.03;5116138;28;20047;-85
2022/10/13 02:27:07;;;;;;;24.90;10.50;;;;;;;10.86;99.08;101679.53;5116081;28;20106;-88
2022/10/13 02:29:36;;;;;;;21.35;10.02;;;;;;;10.86;99.19;101676.81;5097970;28;20032;-87
2022/10/13 02:32:40;;;;;;;21.85;10.18;;;;;;;10.88;98.98;101665.78;5097693;28;20042;-88
2022/10/13 02:35:41;;;;;;;18.65;9.60;;;;;;;10.90;99.18;101665.59;4997016;28;20034;-88
2022/10/13 02:38:07;;;;;;;22.80;9.87;;;;;;;10.92;99.40;101668.94;5089623;28;20050;-88
2022/10/13 02:40:56;;;;;;;25.25;10.23;;;;;;;10.95;99.38;101672.09;5097243;28;20122;-88
2022/10/13 02:43:24;;;;;;;20.65;9.63;;;;;;;10.99;98.71;101672.56;5099988;28;20035;-87
2022/10/13 02:46:08;;;;;;;18.20;9.27;;;;;;;10.98;99.40;101671.69;5097541;28;20441;-87
2022/10/13 02:48:41;;;;;;;18.10;9.40;;;;;;;11.01;99.17;101673.19;5096653;28;20051;-88
2022/10/13 02:51:07;;;;;;;20.92;9.43;;;;;;;11.02;99.10;101666.72;5080395;28;20105;-88
2022/10/13 02:53:38;;;;;;;19.63;9.23;;;;;;;11.03;99.07;101665.69;5097273;28;20031;-88
2022/10/13 02:56:06;;;;;;;21.07;9.60;;;;;;;11.03;99.01;101654.84;5115871;28;20027;-87
2022/10/13 02:58:32;;;;;;;21.83;8.95;;;;;;;11.03;99.14;101668.41;5080294;28;20035;-87
2022/10/13 03:01:16;;;;;;;18.13;9.10;;;;;;;11.03;99.08;101660.25;5115413;28;20537;-87
2022/10/13 03:03:46;;;;;;;17.92;9.38;;;;;;;11.01;98.99;101665.03;5096070;28;20028;-88
2022/10/13 03:06:14;;;;;;;19.77;9.03;;;;;;;11.02;99.42;101667.53;5097173;28;20043;-88
2022/10/13 03:08:45;;;;;;;19.20;9.23;;;;;;;11.00;99.71;101653.34;5096876;28;20035;-88
2022/10/13 03:11:20;;;;;;;21.92;9.15;;;;;;;11.03;99.28;101658.38;5080373;28;20028;-88
2022/10/13 03:17:25;;;;;;;19.00;9.20;;;;;;;11.02;99.39;101645.00;5103093;28;20085;-88
2022/10/13 03:19:58;;;;;;;17.03;9.20;;;;;;;11.02;99.01;101645.00;5096340;28;20382;-88
2022/10/13 03:22:26;;;;;;;21.35;9.68;;;;;;;11.02;99.55;101648.53;5096516;28;20019;-87
2022/10/13 03:24:57;;;;;;;20.35;8.90;;;;;;;11.03;99.24;101643.97;5096096;28;20483;-88
2022/10/13 03:27:30;;;;;;;17.52;9.20;;;;;;;11.03;99.22;101647.50;5096613;28;20112;-87
2022/10/13 03:30:08;;;;;;;;;;;;;;;;;;;;;
2022/10/13 03:32:36;;;;;;;19.83;8.87;;;;;;;11.03;99.64;101643.97;5098605;28;20036;-88
2022/10/13 03:35:08;;;;;;;18.20;8.90;;;;;;;11.05;99.51;101640.00;5096947;28;20027;-87
2022/10/13 03:38:08;;;;;;;19.40;8.48;;;;;;;11.10;99.37;101633.13;5079367;28;20039;-88
2022/10/13 03:40:52;;;;;;;22.83;9.88;;;;;;;11.09;99.23;101645.03;5096301;28;20047;-88
2022/10/13 03:43:30;;;;;;;22.02;8.52;;;;;;;11.11;99.37;101632.94;5095907;28;20134;-88
2022/10/13 03:46:05;;;;;;;18.90;9.30;;;;;;;11.16;98.67;101635.03;5096322;28;20483;-88
2022/10/13 03:48:34;;;;;;;15.88;8.90;;;;;;;11.13;99.18;101628.16;5114149;28;20024;-87
2022/10/13 03:51:09;;;;;;;19.20;8.80;;;;;;;11.14;99.08;101628.97;5096210;28;20027;-89
2022/10/13 03:53:38;;;;;;;20.35;9.52;;;;;;;11.13;99.01;101625.44;5074729;28;20039;-88
2022/10/13 03:56:11;;;;;;;22.60;9.15;;;;;;;11.15;98.97;101620.63;5095845;28;20055;-87
2022/10/13 03:58:45;;;;;;;18.20;8.90;;;;;;;11.16;98.95;101622.31;5095795;28;20089;-88
2022/10/13 04:01:15;;;;;;;16.63;8.45;;;;;;;11.16;99.00;101610.59;5096478;28;20028;-87
2022/10/13 04:03:47;;;;;;;20.27;9.05;;;;;;;11.16;98.84;101614.16;5062609;28;20096;-87
2022/10/13 04:06:12;;;;;;;19.00;9.70;;;;;;;11.23;98.84;101614.19;5114116;28;20032;-88
2022/10/13 04:08:40;;;;;;;17.83;9.30;;;;;;;11.21;98.48;101603.53;5096072;28;20084;-88
2022/10/13 04:11:09;;;;;;;18.20;8.45;;;;;;;11.22;98.60;101604.38;5095862;28;20028;-88
2022/10/13 04:13:43;;;;;;;19.65;9.43;;;;;;;11.24;98.44;101605.84;5095273;28;20039;-87
2022/10/13 04:16:16;;;;;;;19.60;9.23;;;;;;;11.27;98.57;101610.03;5095038;28;20035;-87
2022/10/13 04:19:08;;;;;;;19.47;8.83;;;;;;;11.29;98.43;101617.97;5095479;28;20058;-88
2022/10/13 04:21:39;;;;;;;17.42;9.00;;;;;;;11.27;99.69;101614.66;5096249;28;20079;-88
2022/10/13 04:24:09;;;;;;;17.23;8.98;;;;;;;11.10;100.00;101603.25;5078511;28;20517;-88
2022/10/13 04:26:35;;;;;;;21.58;9.55;;;;;;;10.97;100.00;101604.00;5113864;28;20043;-88
2022/10/13 04:29:10;;;;;;;18.35;9.13;;;;;;;10.84;100.00;101591.22;5095478;28;20081;-88
2022/10/13 04:31:41;;;;;;;17.93;8.60;;;;;;;10.77;100.00;101593.88;5095734;28;20028;-88
2022/10/13 04:34:07;;;;;;;18.55;8.63;;;;;;;10.74;100.00;101588.84;5095911;28;20368;-87
2022/10/13 04:36:32;;;;;;;19.42;9.02;;;;;;;10.77;100.00;101591.16;5109368;28;20126;-88
2022/10/13 04:39:03;;;;;;;20.07;9.40;;;;;;;10.73;100.00;101589.88;5112550;28;20118;-88
2022/10/13 04:41:28;;;;;;;20.10;8.82;;;;;;;10.78;100.00;101595.56;5113744;28;20114;-88
2022/10/13 04:44:01;;;;;;;18.40;9.57;;;;;;;10.75;100.00;101589.66;5112338;28;20114;-88
2022/10/13 04:46:29;;;;;;;19.35;9.95;;;;;;;10.75;100.00;101584.25;5112340;28;20498;-88
2022/10/13 04:49:06;;;;;;;21.20;9.63;;;;;;;10.80;100.00;101587.22;5095166;28;20492;-88
2022/10/13 04:51:32;;;;;;;23.53;10.20;;;;;;;10.80;100.00;101587.22;5112561;28;20016;-87
2022/10/13 04:54:07;;;;;;;21.80;9.98;;;;;;;10.82;100.00;101595.97;5112458;28;20050;-88
2022/10/13 04:56:33;;;;;;;25.02;9.85;;;;;;;10.88;100.00;101598.75;5111892;28;20499;-88
2022/10/13 04:58:58;;;;;;;18.20;9.43;;;;;;;10.95;100.00;101597.94;5095689;28;20031;-88
2022/10/13 05:01:34;;;;;;;17.17;9.85;;;;;;;11.03;100.00;101586.94;5112057;28;20043;-87
2022/10/13 05:04:07;;;;;;;17.05;9.30;;;;;;;11.01;100.00;101581.72;5112235;28;20034;-88
2022/10/13 05:06:54;;;;;;;;;;;;;;;;;;;;;
2022/10/13 05:09:23;;;;;;;19.45;10.05;;;;;;;11.03;100.00;101592.38;5113717;28;20031;-88
2022/10/13 05:11:53;;;;;;;19.55;9.65;;;;;;;11.00;100.00;101587.34;5113660;28;20032;-89
2022/10/13 05:14:23;;;;;;;20.98;9.27;;;;;;;11.02;100.00;101591.50;5112139;28;20020;-88
2022/10/13 05:16:48;;;;;;;21.77;9.98;;;;;;;11.04;100.00;101581.31;5111978;28;20485;-86
2022/10/13 05:19:14;;;;;;;20.73;9.63;;;;;;;11.03;100.00;101587.78;5113193;28;20031;-87
2022/10/13 05:21:49;;;;;;;17.57;9.00;;;;;;;11.01;100.00;101581.72;5094911;28;20058;-86
2022/10/13 05:24:29;;;;;;;19.43;9.20;;;;;;;11.00;100.00;101588.16;5111769;28;20304;-86
2022/10/13 05:26:55;;;;;;;16.23;9.00;;;;;;;11.02;100.00;101594.22;5116706;28;20035;-87
2022/10/13 05:29:23;;;;;;;22.92;10.25;;;;;;;10.99;100.00;101596.53;5117002;28;20387;-85
2022/10/13 05:31:51;;;;;;;19.98;10.32;;;;;;;10.98;100.00;101587.50;5115821;28;20031;-85
2022/10/13 05:34:19;;;;;;;17.35;9.38;;;;;;;10.97;100.00;101596.72;5098659;28;20028;-85
2022/10/13 05:36:45;;;;;;;24.40;9.67;;;;;;;10.95;100.00;101590.63;5115414;28;20032;-85
2022/10/13 05:39:12;;;;;;;20.05;9.75;;;;;;;10.96;100.00;101596.91;5115558;28;20111;-85
2022/10/13 05:41:40;;;;;;;20.70;9.73;;;;;;;10.99;100.00;101593.81;5115525;28;20031;-86
2022/10/13 05:44:16;;;;;;;19.25;9.77;;;;;;;10.98;100.00;101594.84;5098568;28;20035;-86
2022/10/13 05:46:42;;;;;;;22.65;9.40;;;;;;;10.98;100.00;101595.66;5116543;28;20084;-86
2022/10/13 05:49:17;;;;;;;20.27;9.35;;;;;;;10.98;100.00;101587.50;5098271;28;20042;-86
2022/10/13 05:51:47;;;;;;;18.88;9.68;;;;;;;10.98;100.00;101590.22;5099428;28;20043;-85
2022/10/13 05:54:18;;;;;;;21.03;9.57;;;;;;;11.00;100.00;101592.78;5115036;28;20027;-86
2022/10/13 05:56:49;;;;;;;20.23;9.57;;;;;;;11.00;100.00;101590.88;5115250;28;20032;-86
2022/10/13 05:59:18;;;;;;;22.10;10.18;;;;;;;11.00;100.00;101593.59;5115331;28;20031;-86
2022/10/13 06:01:45;;;;;;;23.13;10.23;;;;;;;11.05;100.00;101601.16;5115183;28;20027;-85
2022/10/13 06:04:21;;;;;;;19.30;10.00;;;;;;;11.06;100.00;101590.09;5115100;28;20133;-85
2022/10/13 06:06:50;;;;;;;20.13;10.00;;;;;;;11.08;100.00;101586.34;5114800;28;20027;-86
2022/10/13 06:09:16;;;;;;;16.98;9.13;;;;;;;11.12;100.00;101593.06;5114974;28;20031;-86
2022/10/13 06:11:42;;;;;;;18.98;9.82;;;;;;;11.13;100.00;101578.41;5097972;28;20034;-85
2022/10/13 06:14:07;;;;;;;19.23;9.33;;;;;;;11.14;100.00;101567.34;5097349;28;20387;-86
2022/10/13 06:16:36;;;;;;;24.83;10.93;;;;;;;11.17;100.00;101579.69;5096996;28;20052;-85
2022/10/13 06:19:03;;;;;;;19.08;9.50;;;;;;;11.17;100.00;101569.66;5079978;28;20075;-86
2022/10/13 06:21:28;;;;;;;24.13;9.55;;;;;;;11.18;100.00;101562.38;5097491;28;20462;-86
2022/10/13 06:23:53;;;;;;;23.23;9.77;;;;;;;11.21;100.00;101557.34;5113982;28;20096;-86
2022/10/13 06:26:24;;;;;;;20.20;9.80;;;;;;;11.24;100.00;101562.38;5097259;28;20119;-86
2022/10/13 06:28:52;;;;;;;21.60;9.60;;;;;;;11.26;100.00;101567.59;5097601;28;20414;-86
2022/10/13 06:31:18;;;;;;;16.65;10.18;;;;;;;11.30;100.00;101568.06;5114182;28;20471;-86
2022/10/13 06:33:56;;;;;;;;;;;;;;;;;;;;;
2022/10/13 06:36:24;;;;;;;22.75;9.45;;;;;;;11.33;99.82;101567.66;5115626;28;20026;-86
2022/10/13 06:38:54;;;;;;;26.00;9.75;;;;;;;11.36;99.77;101559.09;5114150;28;20458;-86
2022/10/13 06:41:37;;;;;;;23.35;10.18;;;;;;;11.41;99.26;101564.72;5114512;28;20463;-86
2022/10/13 06:44:10;;;;;;;20.33;10.00;;;;;;;11.45;99.17;101571.44;5097753;28;20122;-86
2022/10/13 06:46:39;;;;;;;21.57;9.20;;;;;;;11.46;99.11;101564.97;5114252;28;20036;-86
2022/10/13 06:49:04;;;;;;;19.38;9.45;;;;;;;11.47;99.19;101561.22;5098015;28;20057;-87
2022/10/13 06:51:39;;;;;;;18.92;9.60;;;;;;;11.54;98.88;101575.66;5114009;28;20433;-86
2022/10/13 06:54:13;;;;;;;23.33;10.13;;;;;;;11.56;98.64;101567.31;5080207;28;20035;-85
2022/10/13 06:56:44;;;;;;;20.27;9.50;;;;;;;11.61;98.60;101559.38;5080220;28;20031;-85
2022/10/13 06:59:12;;;;;;;17.40;9.02;;;;;;;11.65;98.15;101567.94;5113820;28;20527;-85
2022/10/13 07:01:50;;;;;;;20.15;10.13;;;;;;;11.63;98.00;101568.16;5113902;28;20080;-86
2022/10/13 07:04:24;;;;;;;20.73;9.30;;;;;;;11.62;97.94;101555.63;5098496;28;20085;-86
2022/10/13 07:06:55;;;;;;;22.85;9.27;;;;;;;11.62;98.29;101561.06;5113676;28;20043;-86
2022/10/13 07:09:30;;;;;;;21.10;9.63;;;;;;;11.62;98.16;101554.75;5096774;28;20034;-86
2022/10/13 07:12:00;;;;;;;23.10;9.77;;;;;;;11.62;98.11;101568.34;5115649;28;20027;-86
2022/10/13 07:14:28;;;;;;;20.80;10.82;;;;;;;11.64;98.18;101563.56;5113775;28;20032;-86
2022/10/13 07:16:53;;;;;;;18.52;9.57;;;;;;;11.66;98.15;101564.19;5113952;28;20023;-86
2022/10/13 07:19:22;;;;;;;20.77;9.30;;;;;;;11.72;98.01;101574.25;5112968;28;20487;-86
2022/10/13 07:21:54;;;;;;;19.73;9.82;;;;;;;11.74;97.76;101569.47;5113398;28;20023;-86
2022/10/13 07:24:25;;;;;;;29.67;11.52;;;;;;;11.80;97.56;101565.09;5115120;28;20083;-86
2022/10/13 07:26:51;;;;;;;20.07;10.90;;;;;;;11.91;97.49;101568.03;5114961;28;20031;-86
2022/10/13 07:29:19;;;;;;;21.40;10.52;;;;;;;11.92;96.96;101560.69;5113423;28;20032;-86
2022/10/13 07:31:50;;;;;;;30.90;11.05;;;;;;;11.99;96.91;101575.19;5113637;28;20468;-86
2022/10/13 07:34:21;;;;;;;24.40;10.73;;;;;;;11.99;96.54;101563.44;5097419;28;20081;-85
2022/10/13 07:36:47;;;;;;;20.15;10.90;;;;;;;12.03;96.39;101572.88;5113117;28;20067;-86
2022/10/13 07:39:20;;;;;;;27.73;11.40;;;;;;;12.04;96.45;101569.13;5096244;28;20058;-84
2022/10/13 07:41:55;;;;;;;18.48;10.80;;;;;;;12.14;96.21;101574.97;5097273;28;20061;-86
2022/10/13 07:44:23;;;;;;;26.20;10.48;;;;;;;12.19;95.59;101577.06;5113797;28;20023;-85
2022/10/13 07:46:58;;;;;;;24.13;11.85;;;;;;;12.24;95.17;101563.69;5114345;28;20035;-86
2022/10/13 07:49:31;;;;;;;25.13;11.82;;;;;;;12.31;94.73;101567.22;5095295;28;20036;-86
2022/10/13 07:51:56;;;;;;;20.00;11.07;;;;;;;12.37;94.65;101563.69;5110016;28;20053;-85
2022/10/13 07:54:22;;;;;;;25.35;11.60;;;;;;;12.59;94.37;101569.75;5103958;28;20039;-85
2022/10/13 07:56:53;;;;;;;25.37;10.67;;;;;;;12.69;93.11;101568.47;5084155;28;20032;-86
2022/10/13 07:59:21;;;;;;;26.88;11.63;;;;;;;12.74;92.90;101571.38;5113431;28;20030;-85
2022/10/13 08:01:55;;;;;;;25.30;12.07;;;;;;;12.85;92.49;101573.47;5086660;28;20035;-85
2022/10/13 08:04:30;;;;;;;26.25;11.98;;;;;;;12.88;91.50;101567.59;5112936;28;20034;-85
2022/10/13 08:06:58;;;;;;;23.40;11.75;;;;;;;12.84;91.43;101565.50;5102224;28;20074;-85
2022/10/13 08:09:40;;;;;;;22.47;11.17;;;;;;;12.89;91.63;101566.56;5094509;28;20498;-85
2022/10/13 08:12:14;;;;;;;25.00;11.05;;;;;;;12.94;91.44;101572.19;5106718;28;20543;-86
2022/10/13 08:14:41;;;;;;;22.02;10.48;;;;;;;12.93;91.19;101573.25;5076574;28;20032;-86
2022/10/13 08:17:16;;;;;;;27.52;11.52;;;;;;;12.93;91.10;101566.94;5097490;28;20032;-87
2022/10/13 08:19:41;;;;;;;30.65;12.20;;;;;;;12.89;91.02;101563.81;5092380;28;20036;-86
2022/10/13 08:22:13;;;;;;;30.40;11.57;;;;;;;12.92;91.06;101559.84;5092188;28;20062;-86
2022/10/13 08:24:38;;;;;;;18.85;10.93;;;;;;;13.03;90.63;101558.34;5075266;28;20151;-87
2022/10/13 08:27:04;;;;;;;23.07;11.53;;;;;;;13.19;90.80;101560.59;5092357;28;20131;-86
2022/10/13 08:29:32;;;;;;;24.20;10.50;;;;;;;13.25;89.45;101550.72;5093925;28;20032;-86
2022/10/13 08:32:05;;;;;;;18.63;10.57;;;;;;;13.27;89.23;101549.44;5092164;28;20122;-86
2022/10/13 08:34:35;;;;;;;24.40;10.13;;;;;;;13.32;89.09;101543.34;5080299;28;20122;-86
2022/10/13 08:37:00;;;;;;;22.67;10.73;;;;;;;13.38;89.30;101541.69;5112477;28;20432;-87
2022/10/13 08:39:29;;;;;;;20.43;10.20;;;;;;;13.44;88.02;101548.97;5074223;28;20028;-86
2022/10/13 08:41:59;;;;;;;21.52;10.23;;;;;;;13.43;87.45;101550.84;5111986;28;20031;-87
2022/10/13 08:44:43;;;;;;;18.57;10.20;;;;;;;13.42;88.46;101559.25;5112290;28;20040;-87
2022/10/13 08:47:32;;;;;;;24.67;11.57;;;;;;;13.35;88.69;101555.75;5112627;28;20035;-86
2022/10/13 08:50:23;;;;;;;23.83;11.05;;;;;;;13.41;88.85;101552.97;5102495;28;20456;-86
2022/10/13 08:52:59;;;;;;;25.58;10.95;;;;;;;13.52;88.67;101554.16;5092420;28;20504;-87
2022/10/13 08:55:46;;;;;;;24.13;10.10;;;;;;;13.57;88.43;101556.22;5091932;28;20035;-87
2022/10/13 08:58:22;;;;;;;23.40;9.23;;;;;;;13.69;87.26;101546.31;5095061;28;20537;-87
2022/10/13 09:00:56;;;;;;;23.00;10.40;;;;;;;13.62;87.09;101546.34;5113237;28;20398;-87
2022/10/13 09:03:28;;;;;;;20.73;9.43;;;;;;;13.59;87.61;101544.06;5116427;28;20387;-87
2022/10/13 09:06:02;;;;;;;24.10;9.88;;;;;;;13.63;87.11;101536.31;5116556;28;20035;-86
2022/10/13 09:08:44;;;;;;;19.88;9.85;;;;;;;13.63;86.75;101533.56;5116150;28;20046;-86
2022/10/13 09:11:11;;;;;;;19.17;10.03;;;;;;;13.55;87.19;101534.66;5107556;28;20024;-85
2022/10/13 09:13:42;;;;;;;24.42;9.75;;;;;;;13.50;87.16;101540.75;5095739;28;20035;-86
2022/10/13 09:16:10;;;;;;;21.63;10.18;;;;;;;13.43;87.82;101541.84;5097597;28;20464;-86
2022/10/13 09:18:36;;;;;;;23.35;10.23;;;;;;;13.41;88.00;101536.63;5094911;28;20020;-86
2022/10/13 09:21:29;;;;;;;26.98;10.48;;;;;;;13.39;87.89;101540.59;5078512;28;20035;-86
2022/10/13 09:24:06;;;;;;;20.87;9.63;;;;;;;13.30;88.18;101535.38;5093128;28;20487;-86
2022/10/13 09:26:37;;;;;;;19.90;9.77;;;;;;;13.32;88.47;101535.16;5100381;28;20030;-85
2022/10/13 09:29:28;;;;;;;24.65;10.75;;;;;;;13.42;87.87;101541.03;5098541;28;20022;-86
2022/10/13 09:32:17;;;;;;;20.05;10.60;;;;;;;13.45;87.66;101528.81;5060292;28;20031;-84
2022/10/13 09:34:46;;;;;;;18.75;10.45;;;;;;;13.51;87.27;101527.97;5083037;28;20135;-86
2022/10/13 09:37:24;;;;;;;19.77;10.30;;;;;;;13.61;86.92;101524.75;5098557;28;20059;-86
2022/10/13 09:40:32;;;;;;;23.40;11.45;;;;;;;13.67;87.29;101535.63;5098720;28;20027;-85
2022/10/13 09:43:26;;;;;;;22.75;11.23;;;;;;;13.64;86.91;101532.50;5103858;28;20039;-85
2022/10/13 09:45:52;;;;;;;22.13;10.75;;;;;;;13.59;86.38;101526.88;5116609;28;20027;-85
2022/10/13 09:48:37;;;;;;;20.60;11.02;;;;;;;13.53;87.55;101531.31;5114920;28;20375;-85
2022/10/13 09:51:35;;;;;;;25.57;12.07;;;;;;;13.25;91.40;101527.00;5108387;28;20031;-86
2022/10/13 09:54:01;;;;;;;24.08;11.77;;;;;;;12.73;94.49;101531.63;5094727;28;20028;-87
2022/10/13 09:56:48;;;;;;;25.92;12.63;;;;;;;12.42;97.07;101535.84;5094607;28;20040;-87
2022/10/13 09:59:42;;;;;;;25.45;13.27;;;;;;;12.22;99.68;101535.84;5096134;28;20479;-88
2022/10/13 10:03:07;;;;;;;;;;;;;;;;;;;;;
2022/10/13 10:05:54;;;;;;;31.20;13.70;;;;;;;12.04;100.00;101531.88;5096207;28;20040;-87
2022/10/13 10:08:44;;;;;;;30.17;13.57;;;;;;;11.99;100.00;101517.22;5093716;28;20040;-88
2022/10/13 10:11:26;;;;;;;26.27;13.50;;;;;;;11.96;100.00;101523.06;5093681;28;20100;-88
2022/10/13 10:13:52;;;;;;;27.73;14.05;;;;;;;11.94;100.00;101526.00;5095197;28;20169;-88
2022/10/13 10:16:42;;;;;;;27.43;13.00;;;;;;;11.81;100.00;101513.22;5094680;28;20829;-88
2022/10/13 10:19:36;;;;;;;29.27;13.68;;;;;;;11.75;100.00;101520.31;5094467;28;20024;-88
2022/10/13 10:22:11;;;;;;;26.85;13.32;;;;;;;11.71;100.00;101520.94;5094583;28;20039;-88
2022/10/13 10:25:11;;;;;;;28.50;13.90;;;;;;;11.68;100.00;101511.31;5095546;28;20058;-88
2022/10/13 10:27:43;;;;;;;24.13;13.23;;;;;;;11.68;100.00;101510.47;5094784;28;20134;-88
2022/10/13 10:30:36;;;;;;;;;;;;;;;;;;;;;
2022/10/13 10:33:03;;;;;;;28.88;14.70;;;;;;;11.72;100.00;101511.72;5095552;28;20042;-87
2022/10/13 10:36:02;;;;;;;33.60;14.10;;;;;;;11.70;100.00;101509.22;5077281;28;20042;-88
2022/10/13 10:38:43;;;;;;;29.35;14.10;;;;;;;11.86;100.00;101521.56;5094261;28;20361;-88
2022/10/13 10:41:53;;;;;;;29.87;14.37;;;;;;;11.98;100.00;101512.84;5094344;28;20040;-88
2022/10/13 10:44:28;;;;;;;31.60;13.82;;;;;;;12.20;100.00;101514.28;5086312;28;20501;-87
2022/10/13 10:47:05;;;;;;;24.95;14.13;;;;;;;12.29;100.00;101513.03;5094262;28;20032;-88
2022/10/13 10:49:41;;;;;;;29.13;14.23;;;;;;;12.32;100.00;101517.22;5094766;28;20051;-88
2022/10/13 10:52:13;;;;;;;31.45;13.20;;;;;;;12.41;100.00;101518.66;5093961;28;20488;-88
2022/10/13 10:55:00;;;;;;;21.97;12.57;;;;;;;12.45;100.00;101516.38;5093837;28;20028;-88
2022/10/13 10:57:36;;;;;;;27.13;13.50;;;;;;;12.45;100.00;101514.47;5093894;28;20101;-88
2022/10/13 11:00:19;;;;;;;24.00;11.98;;;;;;;12.52;100.00;101498.16;5093761;28;20032;-87
2022/10/13 11:02:57;;;;;;;22.25;12.23;;;;;;;12.60;100.00;101503.34;5095059;28;20048;-87
2022/10/13 11:05:23;;;;;;;20.00;11.55;;;;;;;12.65;100.00;101494.53;5093491;28;20028;-87
2022/10/13 11:07:57;;;;;;;22.47;12.07;;;;;;;12.79;100.00;101492.63;5093551;28;20031;-87
2022/10/13 11:10:41;;;;;;;27.40;12.63;;;;;;;12.88;100.00;101480.44;5093614;28;20028;-87
2022/10/13 11:13:20;;;;;;;26.27;11.85;;;;;;;12.93;100.00;101491.53;5093682;28;20059;-87
2022/10/13 11:15:46;;;;;;;18.90;11.23;;;;;;;12.81;100.00;101480.47;5093581;28;20373;-86
2022/10/13 11:18:49;;;;;;;27.27;11.80;;;;;;;12.71;100.00;101499.16;5110231;28;20034;-87
2022/10/13 11:21:15;;;;;;;21.52;10.40;;;;;;;12.56;100.00;101487.66;5076426;28;20028;-86
2022/10/13 11:23:53;;;;;;;23.17;12.00;;;;;;;12.47;100.00;101492.50;5091987;28;20483;-86
2022/10/13 11:26:30;;;;;;;22.13;11.65;;;;;;;12.45;100.00;101489.97;5057171;28;20047;-86
2022/10/13 11:29:00;;;;;;;19.45;11.30;;;;;;;12.42;100.00;101487.69;5056387;28;20377;-86
2022/10/13 11:31:46;;;;;;;22.57;11.63;;;;;;;12.44;100.00;101477.41;5040178;28;20396;-86
2022/10/13 11:34:33;;;;;;;19.05;11.35;;;;;;;12.41;100.00;101474.28;5056263;28;20507;-87
2022/10/13 11:37:21;;;;;;;;;;;;;;;;;;;;;
2022/10/13 11:40:14;;;;;;;24.70;10.98;;;;;;;12.28;100.00;101470.56;5074107;28;20364;-86
2022/10/13 11:43:01;;;;;;;19.02;9.68;;;;;;;12.20;100.00;101478.94;5073739;28;20032;-86
2022/10/13 11:45:39;;;;;;;21.43;9.93;;;;;;;12.28;100.00;101469.69;5055852;28;20039;-86
2022/10/13 11:48:24;;;;;;;19.50;10.48;;;;;;;12.25;100.00;101468.25;5056413;28;20400;-87
2022/10/13 11:51:21;;;;;;;17.23;9.82;;;;;;;12.20;100.00;101464.50;5055998;28;20025;-86
2022/10/13 11:54:21;;;;;;;18.55;9.70;;;;;;;12.13;100.00;101463.66;5056372;28;20036;-86
2022/10/13 11:56:52;;;;;;;17.90;9.43;;;;;;;12.13;100.00;101461.78;5073690;28;20131;-86
2022/10/13 11:59:31;;;;;;;24.47;11.20;;;;;;;12.16;100.00;101449.63;5055555;28;20032;-87